Time;durP1;ratioP1;P1;durP2;ratioP2;P2;SDS_P1;SDS_P2;PMS_P1;PMS_P2;Temp;Humidity;BMP_temperature;BMP_pressure;BME280_temperature;BME280_humidity;BME280_pressure;Samples;Min_cycle;Max_cycle;Signal;HPM_P1;HPM_P2
2021/05/01 00:00:12;;;;;;;34.83;6.42;;;;;;;;;;357546;150;857827;-61
2021/05/01 00:01:14;;;;;;;25.16;6.38;;;;;;;;;;356630;150;866978;-60
2021/05/01 00:02:16;;;;;;;37.56;6.51;;;;;;;;;;356712;149;859530;-62
2021/05/01 00:03:18;;;;;;;133.85;8.13;;;;;;;;;;357155;150;857369;-62
2021/05/01 00:04:19;;;;;;;184.59;8.99;;;;;;;;;;356078;150;857362;-61
2021/05/01 00:05:21;;;;;;;7.97;5.49;;;;;;;;;;354810;150;857239;-62
2021/05/01 00:06:23;;;;;;;14.52;5.90;;;;;;;;;;357445;150;859277;-62
2021/05/01 00:07:25;;;;;;;12.18;6.46;;;;;;;;;;356186;149;857566;-61
2021/05/01 00:08:29;;;;;;;8.17;5.81;;;;;;;;;;356300;150;865555;-61
2021/05/01 00:09:30;;;;;;;20.70;6.05;;;;;;;;;;356138;150;857595;-61
2021/05/01 00:10:32;;;;;;;62.77;6.90;;;;;;;;;;353194;150;858802;-62
2021/05/01 00:11:34;;;;;;;15.41;6.09;;;;;;;;;;356178;150;857474;-62
2021/05/01 00:12:37;;;;;;;25.96;5.49;;;;;;;;;;356568;150;859112;-62
2021/05/01 00:13:38;;;;;;;16.67;5.73;;;;;;;;;;355991;150;865128;-62
2021/05/01 00:14:40;;;;;;;35.12;5.95;;;;;;;;;;354259;149;856295;-62
2021/05/01 00:15:42;;;;;;;79.92;7.16;;;;;;;;;;356890;150;863920;-62
2021/05/01 00:16:44;;;;;;;99.26;7.91;;;;;;;;;;357049;150;863779;-62
2021/05/01 00:17:46;;;;;;;134.99;8.81;;;;;;;;;;353861;149;856890;-62
2021/05/01 00:18:48;;;;;;;119.61;8.36;;;;;;;;;;354368;150;863749;-62
2021/05/01 00:19:49;;;;;;;11.14;7.41;;;;;;;;;;354982;150;856096;-62
2021/05/01 00:20:51;;;;;;;16.12;7.29;;;;;;;;;;355294;149;856458;-62
2021/05/01 00:21:52;;;;;;;18.44;8.31;;;;;;;;;;356801;149;863701;-62
2021/05/01 00:22:54;;;;;;;12.22;7.85;;;;;;;;;;356820;150;856706;-62
2021/05/01 00:23:56;;;;;;;9.50;7.31;;;;;;;;;;356467;150;856264;-62
2021/05/01 00:24:57;;;;;;;10.44;6.96;;;;;;;;;;357036;150;856594;-62
2021/05/01 00:25:59;;;;;;;8.86;7.24;;;;;;;;;;355234;150;863880;-61
2021/05/01 00:27:00;;;;;;;10.26;7.54;;;;;;;;;;357039;150;856660;-62
2021/05/01 00:28:03;;;;;;;12.61;7.96;;;;;;;;;;356206;150;863821;-62
2021/05/01 00:29:04;;;;;;;8.93;6.85;;;;;;;;;;355903;149;856348;-62
2021/05/01 00:30:06;;;;;;;8.49;6.94;;;;;;;;;;357449;150;856072;-61
2021/05/01 00:32:58;;;;;;;7.79;5.83;;;;;;;12.44;68.54;99454.88;374241;142;880669;-62
2021/05/01 00:33:59;;;;;;;11.69;5.77;;;;;;;12.33;68.26;99458.59;363391;145;857851;-61
2021/05/01 00:35:02;;;;;;;7.99;5.44;;;;;;;12.30;68.72;99456.06;360464;148;857406;-62
2021/05/01 00:36:05;;;;;;;44.04;5.31;;;;;;;12.29;68.41;99458.70;360148;146;865363;-62
2021/05/01 00:37:06;;;;;;;8.35;4.50;;;;;;;12.27;67.70;99467.38;363974;146;857158;-62
2021/05/01 00:38:08;;;;;;;9.38;5.59;;;;;;;12.25;67.03;99465.70;363775;147;857838;-62
2021/05/01 00:39:10;;;;;;;14.79;3.25;;;;;;;12.19;66.81;99461.48;362165;145;864982;-62
2021/05/01 00:40:13;;;;;;;3.85;3.39;;;;;;;12.12;66.35;99462.51;360178;147;857361;-61
2021/05/01 00:41:15;;;;;;;4.93;3.61;;;;;;;12.06;66.14;99460.91;360892;146;857449;-62
2021/05/01 00:42:17;;;;;;;4.66;3.29;;;;;;;12.01;66.06;99461.89;365016;144;856746;-62
2021/05/01 00:43:19;;;;;;;5.32;3.86;;;;;;;11.96;66.10;99477.54;363878;147;864920;-61
2021/05/01 00:44:20;;;;;;;12.19;3.07;;;;;;;11.96;66.10;99477.54;361720;145;864864;-62
2021/05/01 00:45:22;;;;;;;4.74;3.49;;;;;;;11.89;65.66;99465.58;363981;145;865899;-61
2021/05/01 00:46:25;;;;;;;5.38;3.28;;;;;;;11.79;65.42;99463.19;360503;147;866912;-62
2021/05/01 00:47:27;;;;;;;6.34;3.37;;;;;;;11.71;65.75;99472.86;363687;146;857237;-62
2021/05/01 00:48:29;;;;;;;6.49;3.15;;;;;;;11.66;65.80;99461.70;356051;150;865149;-62
2021/05/01 00:49:30;;;;;;;59.95;4.60;;;;;;;11.61;65.73;99466.13;364119;146;857852;-62
2021/05/01 00:50:32;;;;;;;34.01;5.92;;;;;;;;;;365132;144;865966;-62
2021/05/01 00:51:34;;;;;;;6.30;4.64;;;;;;;;;;358579;150;858296;-62
2021/05/01 00:52:36;;;;;;;79.27;5.78;;;;;;;;;;356881;148;865550;-61
2021/05/01 00:53:38;;;;;;;226.91;10.87;;;;;;;;;;351148;152;865115;-62
2021/05/01 00:54:40;;;;;;;29.39;5.46;;;;;;;;;;353105;152;857482;-62
2021/05/01 00:55:42;;;;;;;79.69;5.93;;;;;;;;;;356910;148;857827;-62
2021/05/01 00:56:45;;;;;;;37.55;5.26;;;;;;;;;;357677;147;857486;-62
2021/05/01 00:57:47;;;;;;;12.25;4.76;;;;;;;;;;358757;148;857282;-62
2021/05/01 00:58:48;;;;;;;74.34;6.76;;;;;;;;;;353972;148;866835;-62
2021/05/01 00:59:50;;;;;;;25.76;5.72;;;;;;;;;;357413;150;859385;-62
2021/05/01 01:02:07;;;;;;;154.11;9.90;;;;;;;;;;357763;150;859946;-62
2021/05/01 01:03:09;;;;;;;151.35;9.51;;;;;;;;;;354333;148;857659;-61
2021/05/01 01:04:10;;;;;;;255.63;12.28;;;;;;;;;;355414;148;865143;-62
2021/05/01 01:05:12;;;;;;;264.58;11.84;;;;;;;;;;353295;150;865002;-62
2021/05/01 01:06:14;;;;;;;178.87;9.22;;;;;;;;;;357239;148;857512;-62
2021/05/01 01:07:16;;;;;;;197.20;8.93;;;;;;;;;;357015;148;857519;-61
2021/05/01 01:08:17;;;;;;;110.87;7.26;;;;;;;;;;358031;148;866898;-61
2021/05/01 01:09:19;;;;;;;128.34;9.45;;;;;;;;;;356313;148;859198;-61
2021/05/01 01:10:21;;;;;;;118.59;8.73;;;;;;;;;;358180;150;858133;-62
2021/05/01 01:11:23;;;;;;;166.46;9.95;;;;;;;;;;356974;147;858994;-62
2021/05/01 01:12:24;;;;;;;163.60;7.43;;;;;;;;;;357009;148;857501;-61
2021/05/01 01:32:48;;;;;;;357.84;13.64;;;;;;;11.15;69.07;99491.20;372120;142;879432;-62
2021/05/01 01:33:50;;;;;;;258.17;9.24;;;;;;;11.04;68.53;99494.80;364407;145;858133;-61
2021/05/01 01:34:52;;;;;;;297.69;12.59;;;;;;;10.98;68.21;99489.72;362466;147;857456;-62
2021/05/01 01:35:54;;;;;;;171.00;8.46;;;;;;;10.93;67.96;99497.59;363588;145;865805;-61
2021/05/01 01:36:56;;;;;;;217.14;9.15;;;;;;;10.86;67.70;99493.39;363323;145;864898;-61
2021/05/01 01:37:57;;;;;;;240.91;13.39;;;;;;;;;;363045;148;857182;-61
2021/05/01 01:38:59;;;;;;;144.04;7.00;;;;;;;;;;363460;145;864844;-61
2021/05/01 01:40:00;;;;;;;153.41;7.88;;;;;;;;;;363151;147;857382;-61
2021/05/01 01:41:02;;;;;;;175.14;9.21;;;;;;;;;;362925;147;857236;-61
2021/05/01 01:42:04;;;;;;;244.16;13.98;;;;;;;;;;366769;145;858903;-62
2021/05/01 01:43:06;;;;;;;248.90;12.24;;;;;;;;;;366360;144;865389;-61
2021/05/01 01:44:07;;;;;;;190.11;9.85;;;;;;;;;;362790;145;857431;-61
2021/05/01 01:45:10;;;;;;;185.36;12.17;;;;;;;;;;359285;150;867003;-61
2021/05/01 01:46:13;;;;;;;176.89;9.92;;;;;;;;;;363859;146;859046;-62
2021/05/01 01:47:14;;;;;;;158.09;7.68;;;;;;;;;;362675;145;857420;-62
2021/05/01 01:48:16;;;;;;;206.85;10.94;;;;;;;;;;362540;148;865192;-61
2021/05/01 01:49:18;;;;;;;65.40;5.56;;;;;;;;;;364176;146;865200;-61
2021/05/01 01:50:20;;;;;;;130.20;8.29;;;;;;;;;;362052;146;858556;-61
2021/05/01 01:51:21;;;;;;;138.43;9.26;;;;;;;;;;356961;150;859426;-62
2021/05/01 01:52:23;;;;;;;55.78;7.11;;;;;;;;;;358094;148;859185;-61
2021/05/01 02:12:56;;;;;;;164.27;18.92;;;;;;;10.36;67.64;99532.06;377795;142;878212;-61
2021/05/01 02:13:58;;;;;;;96.68;15.28;;;;;;;10.25;67.71;99537.38;368045;144;857562;-62
2021/05/01 02:14:59;;;;;;;73.74;12.77;;;;;;;10.24;67.95;99533.08;366736;144;857248;-61
2021/05/01 02:16:01;;;;;;;77.67;10.84;;;;;;;10.23;67.62;99539.13;366633;144;865132;-62
2021/05/01 02:17:03;;;;;;;58.39;9.45;;;;;;;10.21;67.22;99530.53;366169;144;858551;-62
2021/05/01 02:18:05;;;;;;;127.86;8.60;;;;;;;10.19;66.92;99540.05;366574;144;865975;-61
2021/05/01 02:19:07;;;;;;;143.77;10.27;;;;;;;10.15;66.25;99538.38;369394;144;865779;-61
2021/05/01 02:20:10;;;;;;;189.57;9.37;;;;;;;10.06;66.31;99539.33;366384;146;859799;-62
2021/05/01 02:21:12;;;;;;;140.61;8.24;;;;;;;9.99;66.23;99542.86;366475;144;856378;-62
2021/05/01 02:22:14;;;;;;;257.89;12.01;;;;;;;9.90;66.48;99536.09;367438;144;856498;-62
2021/05/01 02:23:16;;;;;;;149.07;9.03;;;;;;;9.82;66.56;99541.33;367279;144;856490;-62
2021/05/01 02:24:17;;;;;;;152.96;9.20;;;;;;;9.74;67.21;99531.09;367005;144;864247;-61
2021/05/01 02:25:19;;;;;;;203.09;8.95;;;;;;;9.74;67.90;99535.39;366718;144;863948;-61
2021/05/01 02:26:21;;;;;;;352.25;15.50;;;;;;;9.77;68.54;99535.36;366374;144;856228;-61
2021/05/01 02:27:23;;;;;;;247.06;10.29;;;;;;;9.82;68.98;99545.67;367519;144;856040;-62
2021/05/01 02:28:25;;;;;;;425.89;18.44;;;;;;;9.86;69.17;99542.17;369362;144;863693;-61
2021/05/01 02:29:27;;;;;;;452.24;17.30;;;;;;;9.88;69.15;99540.42;366369;144;863734;-61
2021/05/01 02:30:29;;;;;;;385.64;15.93;;;;;;;9.93;69.15;99539.48;367601;144;863908;-61
2021/05/01 02:33:13;;;;;;;247.82;13.06;;;;;;;10.04;69.09;99531.60;369371;142;968275;-61
2021/05/01 02:34:15;;;;;;;217.24;11.19;;;;;;;9.98;68.88;99544.61;362991;147;865257;-62
2021/05/01 02:35:19;;;;;;;217.78;10.83;;;;;;;10.01;68.68;99544.58;363812;147;856895;-62
2021/05/01 02:36:21;;;;;;;169.31;9.35;;;;;;;10.04;68.64;99546.25;365780;146;865318;-62
2021/05/01 02:37:23;;;;;;;558.79;23.86;;;;;;;10.11;68.66;99547.92;365986;147;864763;-62
2021/05/01 02:38:24;;;;;;;369.69;14.58;;;;;;;10.12;68.41;99543.58;365810;146;865431;-62
2021/05/01 02:39:26;;;;;;;460.15;17.12;;;;;;;10.12;68.53;99547.05;365802;146;865856;-62
2021/05/01 02:40:31;;;;;;;251.69;10.39;;;;;;;10.12;68.37;99549.63;360035;147;866136;-62
2021/05/01 02:41:33;;;;;;;313.44;15.56;;;;;;;10.12;68.65;99552.22;365799;146;858620;-62
2021/05/01 02:42:37;;;;;;;271.24;10.58;;;;;;;10.11;68.73;99547.92;365995;147;865533;-62
2021/05/01 02:43:38;;;;;;;286.55;10.79;;;;;;;10.11;69.26;99549.63;364954;146;858246;-62
2021/05/01 02:44:40;;;;;;;323.07;10.31;;;;;;;10.14;69.97;99549.59;365919;146;857890;-62
2021/05/01 02:45:42;;;;;;;655.49;24.83;;;;;;;10.18;70.61;99559.03;365337;147;858682;-62
2021/05/01 02:46:45;;;;;;;539.81;16.53;;;;;;;10.20;70.17;99560.73;362879;146;865870;-61
2021/05/01 02:47:48;;;;;;;397.09;12.39;;;;;;;10.18;70.43;99559.90;365083;147;865757;-61
2021/05/01 02:48:50;;;;;;;221.71;6.97;;;;;;;10.20;70.69;99565.04;363603;146;867075;-62
2021/05/01 02:49:51;;;;;;;122.68;4.57;;;;;;;10.19;70.58;99565.91;361139;147;865668;-62
2021/05/01 02:50:53;;;;;;;71.68;4.71;;;;;;;10.18;70.36;99571.96;357548;150;857279;-62
2021/05/01 02:51:55;;;;;;;42.36;3.69;;;;;;;10.22;70.29;99571.92;361658;147;857677;-62
2021/05/01 02:52:57;;;;;;;27.95;3.09;;;;;;;10.32;70.24;99570.05;365118;146;866498;-62
2021/05/01 02:53:58;;;;;;;65.31;3.09;;;;;;;10.60;68.74;99574.05;362170;147;865940;-62
2021/05/01 02:55:00;;;;;;;59.13;3.39;;;;;;;10.60;68.74;99574.05;364194;147;865293;-62
2021/05/01 02:56:02;;;;;;;171.57;5.42;;;;;;;10.67;68.23;99567.91;365681;147;866529;-62
2021/05/01 02:58:27;;;;;;;70.44;5.91;;;;;;;;;;349807;152;857221;-63
2021/05/01 02:59:29;;;;;;;59.53;4.02;;;;;;;;;;352324;152;858618;-62
2021/05/01 03:00:31;;;;;;;57.87;3.65;;;;;;;;;;351111;152;865273;-60
2021/05/01 03:01:32;;;;;;;45.63;3.64;;;;;;;;;;351940;152;858133;-60
2021/05/01 03:02:34;;;;;;;64.59;4.23;;;;;;;;;;351112;152;866271;-61
2021/05/01 03:03:36;;;;;;;93.94;6.37;;;;;;;;;;350591;152;857362;-61
2021/05/01 03:04:37;;;;;;;90.34;6.27;;;;;;;;;;352092;153;857444;-61
2021/05/01 03:05:39;;;;;;;120.06;9.36;;;;;;;;;;352024;153;857323;-60
2021/05/01 03:06:42;;;;;;;78.24;6.77;;;;;;;;;;350846;152;857231;-61
2021/05/01 03:07:43;;;;;;;176.21;8.37;;;;;;;;;;351945;153;857347;-60
2021/05/01 03:08:45;;;;;;;33.50;5.02;;;;;;;;;;351908;152;865090;-61
2021/05/01 03:09:46;;;;;;;117.95;9.25;;;;;;;;;;349505;152;864883;-61
2021/05/01 03:10:48;;;;;;;62.81;5.15;;;;;;;;;;351536;151;865950;-61
2021/05/01 03:11:50;;;;;;;33.11;4.63;;;;;;;;;;344930;153;859356;-61
2021/05/01 03:12:52;;;;;;;32.58;3.72;;;;;;;;;;347010;153;857606;-61
2021/05/01 03:13:53;;;;;;;25.15;5.01;;;;;;;;;;349003;152;864911;-61
2021/05/01 03:14:55;;;;;;;22.90;4.40;;;;;;;;;;347272;153;857374;-62
2021/05/01 03:15:56;;;;;;;149.49;8.32;;;;;;;;;;349465;153;857408;-62
2021/05/01 03:16:58;;;;;;;138.30;8.82;;;;;;;;;;347537;154;857300;-62
2021/05/01 03:18:00;;;;;;;94.99;7.61;;;;;;;;;;346313;153;866731;-62
2021/05/01 03:19:01;;;;;;;162.76;10.01;;;;;;;;;;346712;154;859039;-62
2021/05/01 03:20:04;;;;;;;199.39;9.67;;;;;;;;;;345255;154;858406;-62
2021/05/01 03:21:05;;;;;;;223.64;10.58;;;;;;;;;;346526;153;865200;-61
2021/05/01 03:22:07;;;;;;;380.66;15.43;;;;;;;;;;348668;154;858722;-62
2021/05/01 03:23:09;;;;;;;244.91;11.97;;;;;;;;;;348072;153;859817;-63
2021/05/01 03:24:11;;;;;;;237.50;11.63;;;;;;;;;;346270;153;859244;-62
2021/05/01 03:25:13;;;;;;;185.22;9.33;;;;;;;;;;345235;154;867250;-62
2021/05/01 03:26:17;;;;;;;179.02;9.45;;;;;;;;;;346138;153;859358;-62
2021/05/01 03:27:18;;;;;;;193.61;10.12;;;;;;;;;;347781;153;858189;-62
2021/05/01 03:28:22;;;;;;;142.63;9.38;;;;;;;;;;343037;154;857713;-62
2021/05/01 03:29:24;;;;;;;322.08;17.31;;;;;;;;;;344503;153;860671;-62
2021/05/01 03:30:27;;;;;;;173.32;10.16;;;;;;;;;;344477;154;857681;-62
2021/05/01 03:31:29;;;;;;;295.11;14.86;;;;;;;;;;345847;152;857327;-62
2021/05/01 03:32:30;;;;;;;145.10;8.49;;;;;;;;;;346973;154;866096;-62
2021/05/01 03:33:32;;;;;;;104.49;10.49;;;;;;;;;;345095;154;858061;-62
2021/05/01 03:34:34;;;;;;;105.08;8.81;;;;;;;;;;348829;153;864910;-62
2021/05/01 03:35:35;;;;;;;76.14;8.57;;;;;;;;;;345281;154;857445;-62
2021/05/01 03:36:39;;;;;;;222.64;11.57;;;;;;;;;;348250;153;857325;-62
2021/05/01 03:58:57;;;;;;;47.45;7.80;;;;;;;11.94;69.77;99641.00;370932;142;879808;-61
2021/05/01 03:59:59;;;;;;;45.71;8.47;;;;;;;11.87;69.93;99631.62;360249;147;857646;-61
2021/05/01 04:01:01;;;;;;;31.00;8.22;;;;;;;11.90;69.97;99636.75;364563;146;857254;-61
2021/05/01 04:02:03;;;;;;;84.53;8.79;;;;;;;11.93;70.02;99639.30;363959;147;858462;-61
2021/05/01 04:03:04;;;;;;;58.13;6.13;;;;;;;11.98;70.00;99636.63;362736;147;859062;-61
2021/05/01 04:04:09;;;;;;;53.97;7.24;;;;;;;11.98;70.00;99639.22;362672;146;866716;-60
2021/05/01 04:05:13;;;;;;;73.65;8.78;;;;;;;12.00;69.92;99637.48;365161;147;857844;-62
2021/05/01 04:06:15;;;;;;;61.39;7.28;;;;;;;12.05;70.08;99639.98;364112;146;865103;-62
2021/05/01 04:07:17;;;;;;;43.69;6.53;;;;;;;12.12;70.08;99636.38;362900;146;859395;-61
2021/05/01 04:08:19;;;;;;;24.07;5.01;;;;;;;12.18;69.90;99638.02;365831;147;865315;-61
2021/05/01 04:09:20;;;;;;;31.35;4.89;;;;;;;12.23;69.76;99638.78;357149;149;865017;-62
2021/05/01 04:10:24;;;;;;;36.34;5.78;;;;;;;12.33;69.74;99639.47;363804;147;865197;-62
2021/05/01 04:11:26;;;;;;;56.19;6.13;;;;;;;12.42;69.51;99642.71;359254;147;865064;-62
2021/05/01 04:12:27;;;;;;;36.19;6.44;;;;;;;12.50;69.38;99646.89;355960;149;859009;-62
2021/05/01 04:13:29;;;;;;;19.80;6.05;;;;;;;12.56;69.36;99646.77;354647;150;866743;-61
2021/05/01 04:14:31;;;;;;;20.78;5.93;;;;;;;12.63;69.20;99645.74;355129;149;859098;-61
2021/05/01 04:15:33;;;;;;;34.74;7.51;;;;;;;12.71;69.08;99650.79;357952;149;859014;-62
2021/05/01 04:16:36;;;;;;;31.56;7.42;;;;;;;12.77;69.09;99655.84;359336;149;865113;-62
2021/05/01 04:17:38;;;;;;;30.89;7.09;;;;;;;12.82;68.95;99656.60;357208;149;858131;-62
2021/05/01 04:18:40;;;;;;;33.33;7.92;;;;;;;12.86;68.96;99654.81;357687;149;857195;-61
2021/05/01 04:19:42;;;;;;;68.75;8.85;;;;;;;12.90;68.82;99648.66;356239;150;864828;-62
2021/05/01 04:20:44;;;;;;;25.64;8.35;;;;;;;12.85;68.36;99659.14;356601;149;865061;-62
2021/05/01 04:21:46;;;;;;;22.81;8.97;;;;;;;12.86;68.71;99655.65;358063;149;858612;-61
2021/05/01 04:22:48;;;;;;;56.56;9.48;;;;;;;12.85;69.04;99650.50;357876;146;857279;-62
2021/05/01 04:23:50;;;;;;;28.43;8.27;;;;;;;;;;357522;148;864956;-61
2021/05/01 04:24:52;;;;;;;31.45;8.94;;;;;;;;;;357263;150;857314;-61
2021/05/01 04:25:54;;;;;;;17.40;7.86;;;;;;;;;;357076;149;857337;-60
2021/05/01 04:26:55;;;;;;;26.19;8.84;;;;;;;;;;356772;149;857481;-61
2021/05/01 04:27:57;;;;;;;36.41;8.72;;;;;;;;;;354300;149;857323;-60
2021/05/01 04:29:00;;;;;;;46.54;10.58;;;;;;;;;;355710;149;859145;-59
2021/05/01 04:30:02;;;;;;;29.04;9.68;;;;;;;;;;358481;149;865980;-59
2021/05/01 04:31:03;;;;;;;24.00;8.91;;;;;;;;;;359095;149;859427;-61
2021/05/01 04:32:05;;;;;;;32.39;9.47;;;;;;;;;;357374;149;857218;-60
2021/05/01 04:33:07;;;;;;;13.44;10.02;;;;;;;;;;357236;150;866640;-61
2021/05/01 04:34:08;;;;;;;24.54;9.24;;;;;;;;;;355186;149;865477;-62
2021/05/01 04:35:10;;;;;;;31.74;10.64;;;;;;;;;;357638;149;860057;-60
2021/05/01 04:36:12;;;;;;;21.01;10.47;;;;;;;;;;357245;150;857417;-60
2021/05/01 04:37:13;;;;;;;18.18;9.74;;;;;;;;;;356831;149;857453;-60
2021/05/01 04:38:16;;;;;;;13.93;10.03;;;;;;;;;;356265;149;857406;-60
2021/05/01 04:39:17;;;;;;;13.76;10.57;;;;;;;;;;356542;147;857494;-61
2021/05/01 04:40:39;;;;;;;14.25;9.92;;;;;;;;;;358360;149;857425;-61
2021/05/01 04:41:40;;;;;;;13.36;10.49;;;;;;;;;;353341;151;857963;-60
2021/05/01 04:42:48;;;;;;;12.48;9.58;;;;;;;;;;352245;151;857275;-60
2021/05/01 04:43:46;;;;;;;12.34;9.91;;;;;;;;;;345422;153;865000;-60
2021/05/01 04:44:48;;;;;;;15.75;10.51;;;;;;;;;;347853;153;858120;-62
2021/05/01 04:45:49;;;;;;;13.49;10.72;;;;;;;;;;346382;153;857368;-62
2021/05/01 04:46:51;;;;;;;12.84;10.03;;;;;;;;;;345691;154;859492;-59
2021/05/01 04:47:53;;;;;;;13.37;10.45;;;;;;;;;;344776;153;865293;-60
2021/05/01 04:48:55;;;;;;;13.26;10.81;;;;;;;;;;346220;153;859386;-60
2021/05/01 04:49:56;;;;;;;14.79;11.01;;;;;;;;;;347239;154;864964;-60
2021/05/01 04:50:58;;;;;;;14.43;10.25;;;;;;;;;;349368;152;857398;-60
2021/05/01 04:53:05;;;;;;;14.77;11.00;;;;;;;;;;363349;141;881594;-61
2021/05/01 04:54:07;;;;;;;13.68;10.49;;;;;;;;;;340254;155;857255;-61
2021/05/01 04:55:16;;;;;;;13.61;10.49;;;;;;;;;;336949;156;865221;-60
2021/05/01 04:56:19;;;;;;;13.57;10.65;;;;;;;;;;333996;158;858473;-60
2021/05/01 04:57:21;;;;;;;13.81;10.40;;;;;;;;;;338445;156;859979;-61
2021/05/01 04:58:22;;;;;;;14.41;10.69;;;;;;;;;;336918;158;866816;-60
2021/05/01 04:59:24;;;;;;;15.88;11.14;;;;;;;;;;337214;158;858191;-60
2021/05/01 05:00:25;;;;;;;14.89;11.33;;;;;;;;;;338920;156;859429;-61
2021/05/01 05:01:27;;;;;;;14.64;11.14;;;;;;;;;;337423;156;865032;-61
2021/05/01 05:02:29;;;;;;;13.83;11.17;;;;;;;;;;333558;158;857468;-61
2021/05/01 05:03:30;;;;;;;14.95;11.29;;;;;;;;;;331180;159;859700;-61
2021/05/01 05:04:32;;;;;;;13.92;11.09;;;;;;;;;;331234;162;865140;-60
2021/05/01 05:05:33;;;;;;;17.53;11.82;;;;;;;;;;331714;161;857337;-60
2021/05/01 05:06:36;;;;;;;16.85;12.58;;;;;;;;;;330566;160;857309;-60
2021/05/01 05:07:37;;;;;;;13.28;11.52;;;;;;;;;;329862;162;857337;-60
2021/05/01 05:08:39;;;;;;;14.76;11.91;;;;;;;;;;331952;159;857735;-60
2021/05/01 05:09:40;;;;;;;14.17;11.60;;;;;;;;;;331512;162;859425;-60
2021/05/01 05:10:42;;;;;;;16.75;12.24;;;;;;;;;;331217;161;865668;-61
2021/05/01 05:11:44;;;;;;;14.28;11.54;;;;;;;;;;327506;162;859465;-62
2021/05/01 05:12:46;;;;;;;14.11;11.46;;;;;;;;;;320042;165;857797;-61
2021/05/01 05:13:48;;;;;;;19.35;12.40;;;;;;;;;;320018;165;865291;-61
2021/05/01 05:14:50;;;;;;;17.07;12.56;;;;;;;;;;323843;163;857496;-61
2021/05/01 05:15:51;;;;;;;19.13;12.16;;;;;;;;;;321462;167;860220;-61
2021/05/01 05:16:55;;;;;;;16.59;13.13;;;;;;;;;;323373;162;865313;-61
2021/05/01 05:17:56;;;;;;;18.17;13.10;;;;;;;;;;324384;163;857747;-61
2021/05/01 05:18:58;;;;;;;18.82;12.92;;;;;;;;;;330246;163;859155;-61
2021/05/01 05:20:00;;;;;;;18.21;12.45;;;;;;;;;;322473;164;857633;-61
2021/05/01 05:21:01;;;;;;;19.48;12.04;;;;;;;;;;320457;166;859870;-61
2021/05/01 05:22:03;;;;;;;15.24;12.01;;;;;;;;;;325262;165;859173;-61
2021/05/01 05:23:04;;;;;;;17.77;12.47;;;;;;;;;;323520;165;867608;-61
2021/05/01 05:24:06;;;;;;;15.39;12.29;;;;;;;;;;322792;165;859722;-62
2021/05/01 05:25:08;;;;;;;14.92;11.85;;;;;;;;;;318905;159;859073;-61
2021/05/01 05:26:11;;;;;;;14.46;11.89;;;;;;;;;;319484;164;858360;-62
2021/05/01 05:27:12;;;;;;;20.41;13.21;;;;;;;;;;325054;165;860476;-61
2021/05/01 05:28:14;;;;;;;20.01;12.78;;;;;;;;;;324404;165;864968;-61
2021/05/01 05:29:15;;;;;;;18.86;12.76;;;;;;;;;;322250;165;860027;-61
2021/05/01 05:30:19;;;;;;;19.21;12.66;;;;;;;;;;325185;165;857154;-61
2021/05/01 05:31:20;;;;;;;18.28;12.79;;;;;;;;;;321396;165;858850;-61
2021/05/01 05:32:23;;;;;;;18.14;12.52;;;;;;;;;;325350;163;865802;-61
2021/05/01 05:33:24;;;;;;;17.06;12.16;;;;;;;;;;322332;165;865028;-62
2021/05/01 05:34:26;;;;;;;15.89;12.19;;;;;;;;;;325341;163;858504;-61
2021/05/01 05:35:27;;;;;;;16.78;12.49;;;;;;;;;;326299;164;857408;-62
2021/05/01 05:36:29;;;;;;;17.77;11.95;;;;;;;;;;326291;164;857264;-62
2021/05/01 05:37:31;;;;;;;17.36;11.29;;;;;;;;;;326149;163;857341;-61
2021/05/01 05:38:32;;;;;;;14.71;11.91;;;;;;;;;;322438;165;862917;-60
2021/05/01 05:39:34;;;;;;;16.29;12.73;;;;;;;;;;320222;165;859040;-62
2021/05/01 05:40:40;;;;;;;17.76;12.15;;;;;;;;;;320607;165;857517;-61
2021/05/01 05:41:40;;;;;;;14.99;12.28;;;;;;;;;;318203;168;859021;-61
2021/05/01 05:42:47;;;;;;;18.50;11.74;;;;;;;;;;322248;164;858540;-61
2021/05/01 05:43:48;;;;;;;15.87;11.78;;;;;;;;;;323059;165;864784;-63
2021/05/01 05:44:50;;;;;;;15.95;11.81;;;;;;;;;;323452;164;859934;-62
2021/05/01 05:45:52;;;;;;;16.08;11.55;;;;;;;;;;323819;165;865026;-61
2021/05/01 05:46:53;;;;;;;15.73;11.85;;;;;;;;;;322038;165;865097;-62
2021/05/01 05:47:55;;;;;;;16.89;11.69;;;;;;;;;;325192;164;865159;-62
2021/05/01 05:48:56;;;;;;;14.35;11.77;;;;;;;;;;316926;166;857551;-60
2021/05/01 05:49:58;;;;;;;13.76;11.23;;;;;;;;;;320908;166;865416;-62
2021/05/01 05:51:00;;;;;;;15.41;11.95;;;;;;;;;;317292;166;857699;-61
2021/05/01 05:52:01;;;;;;;16.30;11.90;;;;;;;;;;317608;166;865148;-61
2021/05/01 05:53:03;;;;;;;15.38;11.62;;;;;;;;;;322146;165;857612;-59
2021/05/01 05:54:05;;;;;;;15.22;11.52;;;;;;;;;;318692;167;857392;-60
2021/05/01 05:55:07;;;;;;;15.68;10.76;;;;;;;;;;325867;165;857725;-61
2021/05/01 05:56:09;;;;;;;13.65;10.33;;;;;;;;;;319793;168;857896;-61
2021/05/01 05:57:11;;;;;;;16.31;11.98;;;;;;;;;;325239;163;866186;-60
2021/05/01 05:58:13;;;;;;;14.44;11.11;;;;;;;;;;320347;165;857886;-61
2021/05/01 05:59:14;;;;;;;17.63;11.49;;;;;;;;;;317007;167;866024;-61
2021/05/01 06:00:17;;;;;;;18.92;11.63;;;;;;;;;;320074;167;857445;-61
2021/05/01 06:01:18;;;;;;;17.64;11.61;;;;;;;;;;317744;167;859696;-61
2021/05/01 06:02:20;;;;;;;14.07;10.77;;;;;;;;;;318909;167;857373;-62
2021/05/01 06:03:22;;;;;;;15.61;11.03;;;;;;;;;;324316;163;857262;-61
2021/05/01 06:04:25;;;;;;;16.53;11.72;;;;;;;;;;324417;164;857211;-62
2021/05/01 06:05:28;;;;;;;14.69;11.57;;;;;;;;;;323867;163;866728;-60
2021/05/01 06:06:31;;;;;;;17.34;11.12;;;;;;;;;;323871;165;857504;-62
2021/05/01 06:07:43;;;;;;;15.31;11.39;;;;;;;;;;325169;165;857304;-61
2021/05/01 06:08:45;;;;;;;15.91;11.57;;;;;;;;;;320828;165;858221;-62
2021/05/01 06:09:47;;;;;;;16.32;11.34;;;;;;;;;;321120;167;857365;-61
2021/05/01 06:10:48;;;;;;;15.87;11.49;;;;;;;;;;318804;166;865679;-61
2021/05/01 06:11:50;;;;;;;17.44;10.81;;;;;;;;;;320479;168;865604;-61
2021/05/01 06:12:52;;;;;;;16.61;11.60;;;;;;;;;;321210;166;857358;-62
2021/05/01 06:13:53;;;;;;;15.19;11.24;;;;;;;;;;320064;164;857320;-62
2021/05/01 06:14:55;;;;;;;15.44;11.49;;;;;;;;;;316248;169;866808;-61
2021/05/01 06:15:57;;;;;;;14.37;11.39;;;;;;;;;;316506;168;858778;-61
2021/05/01 06:16:59;;;;;;;14.96;11.01;;;;;;;;;;319312;167;857413;-61
2021/05/01 06:18:00;;;;;;;16.33;11.01;;;;;;;;;;317307;167;858151;-60
2021/05/01 06:19:02;;;;;;;14.29;10.55;;;;;;;;;;323378;163;865715;-62
2021/05/01 06:20:05;;;;;;;19.43;11.41;;;;;;;;;;324998;163;857418;-61
2021/05/01 06:21:11;;;;;;;15.63;11.27;;;;;;;;;;325403;163;858802;-61
2021/05/01 06:22:12;;;;;;;16.14;11.44;;;;;;;;;;324109;163;858794;-61
2021/05/01 06:23:15;;;;;;;16.01;11.34;;;;;;;;;;322742;166;857583;-61
2021/05/01 06:24:18;;;;;;;13.06;10.91;;;;;;;;;;321303;165;867018;-60
2021/05/01 06:25:19;;;;;;;13.65;10.46;;;;;;;;;;320622;166;857517;-60
2021/05/01 06:26:21;;;;;;;16.24;11.49;;;;;;;;;;320532;165;857379;-60
2021/05/01 06:27:23;;;;;;;15.07;11.41;;;;;;;;;;321786;163;857371;-61
2021/05/01 06:28:26;;;;;;;16.49;10.92;;;;;;;;;;321776;164;858924;-61
2021/05/01 06:29:28;;;;;;;13.06;10.44;;;;;;;;;;325826;163;865006;-62
2021/05/01 06:30:32;;;;;;;15.98;10.82;;;;;;;;;;321315;165;859341;-61
2021/05/01 06:31:35;;;;;;;14.38;11.18;;;;;;;;;;316914;167;858078;-62
2021/05/01 06:32:38;;;;;;;13.19;11.07;;;;;;;;;;318176;166;865372;-61
2021/05/01 06:33:40;;;;;;;13.37;10.74;;;;;;;;;;319186;166;857924;-62
2021/05/01 06:34:43;;;;;;;15.56;11.15;;;;;;;;;;317890;167;858582;-62
2021/05/01 06:35:47;;;;;;;16.78;11.21;;;;;;;;;;323308;163;859289;-61
2021/05/01 06:36:48;;;;;;;15.13;11.79;;;;;;;;;;318006;166;859035;-62
2021/05/01 06:37:52;;;;;;;16.15;11.23;;;;;;;;;;319235;166;865310;-61
2021/05/01 06:38:59;;;;;;;16.11;10.87;;;;;;;;;;321541;163;858736;-60
2021/05/01 06:40:05;;;;;;;16.60;11.59;;;;;;;;;;321219;167;857383;-62
2021/05/01 06:41:05;;;;;;;17.12;10.86;;;;;;;;;;320973;163;859063;-63